Time;durP1;ratioP1;P1;durP2;ratioP2;P2;SDS_P1;SDS_P2;PMS_P1;PMS_P2;Temp;Humidity;BMP_temperature;BMP_pressure;BME280_temperature;BME280_humidity;BME280_pressure;Samples;Min_cycle;Max_cycle;Signal;HPM_P1;HPM_P2
2022/04/22 00:04:42;;;;;;;46.57;29.63;;;;;;;6.02;100.00;95977.88;10417521;28;20208;-53
2022/04/22 00:09:43;;;;;;;43.63;27.17;;;;;;;5.82;100.00;95969.31;10417137;28;20243;-57
2022/04/22 00:14:43;;;;;;;43.60;27.90;;;;;;;5.69;100.00;95972.25;10417327;28;20220;-53
2022/04/22 00:19:43;;;;;;;48.37;29.73;;;;;;;5.64;100.00;95975.28;10416606;28;20204;-58
2022/04/22 00:24:44;;;;;;;54.90;31.00;;;;;;;5.77;100.00;95959.34;10416791;28;20674;-55
2022/04/22 00:29:44;;;;;;;47.20;28.57;;;;;;;5.85;100.00;95956.88;10416221;28;20762;-54
2022/04/22 00:34:45;;;;;;;49.67;29.00;;;;;;;5.82;100.00;95948.53;10416540;28;20722;-54
2022/04/22 00:39:45;;;;;;;52.83;30.43;;;;;;;5.71;100.00;95947.78;10415939;28;20234;-54
2022/04/22 00:44:46;;;;;;;41.87;27.27;;;;;;;5.57;100.00;95945.66;10415761;28;20184;-53
2022/04/22 00:49:46;;;;;;;43.90;26.80;;;;;;;5.51;100.00;95938.44;10415049;28;20289;-54
2022/04/22 00:54:48;;;;;;;42.63;26.83;;;;;;;5.71;100.00;95926.16;10415494;28;20236;-56
2022/04/22 00:59:48;;;;;;;43.40;28.37;;;;;;;5.55;100.00;95929.41;10414784;28;20631;-55
2022/04/22 01:10:08;;;;;;;49.40;29.33;;;;;;;4.92;100.00;95917.88;10414874;28;20208;-55
2022/04/22 01:15:08;;;;;;;50.37;29.40;;;;;;;4.61;100.00;95904.31;10414869;28;20220;-54
2022/04/22 01:20:09;;;;;;;53.60;30.13;;;;;;;4.31;100.00;95900.94;10414570;28;20694;-55
2022/04/22 01:25:09;;;;;;;58.57;30.73;;;;;;;4.10;100.00;95904.50;10414314;28;20246;-54
2022/04/22 01:30:10;;;;;;;53.20;30.17;;;;;;;4.08;100.00;95906.38;10414113;28;20319;-58
2022/04/22 01:35:10;;;;;;;52.03;29.10;;;;;;;4.03;100.00;95912.94;10413703;28;20216;-56
2022/04/22 01:40:11;;;;;;;52.53;28.83;;;;;;;3.89;100.00;95902.03;10414048;28;20212;-55
2022/04/22 01:45:12;;;;;;;53.17;28.57;;;;;;;3.74;100.00;95909.34;10413195;28;20552;-53
2022/04/22 01:50:12;;;;;;;38.10;24.83;;;;;;;3.41;100.00;95902.72;10413489;28;20222;-54
2022/04/22 01:55:13;;;;;;;42.20;25.63;;;;;;;3.16;100.00;95886.72;10412227;28;20609;-55
2022/04/22 02:00:13;;;;;;;46.97;26.30;;;;;;;3.01;100.00;95883.66;10413283;28;20689;-53
2022/04/22 02:05:13;;;;;;;50.23;27.07;;;;;;;2.72;100.00;95882.72;10412694;28;20275;-54
2022/04/22 02:10:14;;;;;;;48.70;26.40;;;;;;;2.46;100.00;95877.94;10412760;28;20312;-56
2022/04/22 02:15:16;;;;;;;43.37;24.30;;;;;;;2.27;100.00;95882.06;10412181;28;20216;-53
2022/04/22 02:20:17;;;;;;;45.90;26.37;;;;;;;2.11;100.00;95879.91;10412289;28;20228;-56
2022/04/22 02:25:17;;;;;;;52.27;25.70;;;;;;;2.05;100.00;95882.16;10412014;28;20188;-54
2022/04/22 02:30:18;;;;;;;46.13;25.17;;;;;;;1.93;100.00;95881.38;10411783;28;20243;-53
2022/04/22 02:35:21;;;;;;;60.40;28.90;;;;;;;2.05;100.00;95875.25;10393882;28;20713;-53
2022/04/22 02:45:40;;;;;;;48.13;26.10;;;;;;;2.29;100.00;95874.16;10410960;28;20192;-53
2022/04/22 02:50:41;;;;;;;48.00;26.43;;;;;;;2.26;100.00;95879.59;10411266;28;20243;-54
2022/04/22 02:55:47;;;;;;;49.17;25.17;;;;;;;2.07;100.00;95870.75;10410924;28;20290;-53
2022/04/22 03:00:48;;;;;;;54.33;28.30;;;;;;;2.03;100.00;95860.81;10393610;28;20231;-55
2022/04/22 03:05:48;;;;;;;54.30;26.07;;;;;;;2.07;100.00;95857.03;10410483;28;20197;-53
2022/04/22 03:10:48;;;;;;;54.20;26.80;;;;;;;2.28;100.00;95851.84;10410886;28;20220;-53
2022/04/22 03:15:49;;;;;;;47.20;23.67;;;;;;;2.32;100.00;95848.06;10410475;28;20227;-54
2022/04/22 03:20:49;;;;;;;48.00;25.27;;;;;;;2.38;100.00;95849.34;10410207;28;20243;-56
2022/04/22 03:25:50;;;;;;;47.80;26.00;;;;;;;2.53;100.00;95842.06;10409745;28;20271;-53
2022/04/22 03:30:50;;;;;;;59.87;28.13;;;;;;;2.66;100.00;95842.69;10409959;28;20290;-53
2022/04/22 03:35:51;;;;;;;59.70;29.60;;;;;;;2.71;100.00;95835.38;10408993;28;20305;-55
2022/04/22 03:40:52;;;;;;;56.93;26.67;;;;;;;2.79;100.00;95832.94;10410379;28;20274;-54
2022/04/22 03:45:52;;;;;;;57.57;27.13;;;;;;;2.84;100.00;95841.13;10409656;28;20200;-53
2022/04/22 03:50:53;;;;;;;57.93;28.73;;;;;;;2.97;100.00;95845.25;10409602;28;20593;-56
2022/04/22 03:55:53;;;;;;;55.77;28.90;;;;;;;3.02;100.00;95843.09;10409469;28;20236;-58
2022/04/22 04:00:53;;;;;;;52.80;26.33;;;;;;;3.10;100.00;95830.31;10409384;28;20216;-54
2022/04/22 04:05:54;;;;;;;48.50;25.60;;;;;;;3.22;100.00;95824.09;10409749;28;20323;-53
2022/04/22 04:16:13;;;;;;;44.60;25.10;;;;;;;3.27;100.00;95825.47;10410429;28;20224;-53
2022/04/22 04:26:33;;;;;;;43.00;24.50;;;;;;;3.35;100.00;95817.84;10416584;28;20660;-53
2022/04/22 04:31:33;;;;;;;46.17;24.73;;;;;;;3.24;100.00;95821.38;10492710;22;20239;-55
2022/04/22 04:36:33;;;;;;;49.27;25.83;;;;;;;3.41;100.00;95817.31;10498708;28;20227;-54
2022/04/22 04:41:34;;;;;;;42.70;22.23;;;;;;;3.47;100.00;95821.94;10478471;28;20277;-58
2022/04/22 04:46:34;;;;;;;45.73;25.13;;;;;;;3.46;100.00;95825.50;10456900;28;20187;-55
2022/04/22 04:51:35;;;;;;;47.87;26.17;;;;;;;3.31;100.00;95827.66;10456865;28;20207;-56
2022/04/22 04:56:35;;;;;;;43.77;23.40;;;;;;;3.50;100.00;95831.22;10456941;28;20307;-54
2022/04/22 05:01:35;;;;;;;38.53;21.80;;;;;;;3.67;100.00;95821.97;10456688;28;20208;-54
2022/04/22 05:06:36;;;;;;;37.80;21.63;;;;;;;3.49;100.00;95808.84;10456951;28;20203;-52
2022/04/22 05:11:36;;;;;;;32.83;18.63;;;;;;;3.53;100.00;95812.81;10456001;28;20218;-53
2022/04/22 05:16:37;;;;;;;29.50;19.57;;;;;;;3.25;100.00;95799.72;10461190;28;20713;-52
2022/04/22 05:21:37;;;;;;;35.73;22.37;;;;;;;3.11;100.00;95800.06;10455966;28;20709;-52
2022/04/22 05:26:38;;;;;;;28.17;18.17;;;;;;;3.23;100.00;95799.00;10455735;28;20754;-52
2022/04/22 05:36:57;;;;;;;30.83;21.30;;;;;;;3.49;100.00;95798.50;10455453;28;20259;-55
2022/04/22 05:42:00;;;;;;;31.10;18.60;;;;;;;3.60;100.00;95780.25;10465523;28;20282;-52
2022/04/22 05:47:00;;;;;;;53.13;32.20;;;;;;;3.78;100.00;95782.16;10489781;28;20198;-55
2022/04/22 05:52:01;;;;;;;24.80;16.27;;;;;;;4.47;100.00;95781.06;10494971;28;20218;-53
2022/04/22 05:57:01;;;;;;;25.37;16.23;;;;;;;4.92;100.00;95772.56;10458299;28;20726;-55
2022/04/22 06:02:02;;;;;;;21.10;14.10;;;;;;;5.24;100.00;95762.66;10456677;28;20212;-54
2022/04/22 06:07:02;;;;;;;18.10;13.53;;;;;;;6.42;100.00;95765.91;10454374;28;20184;-56
2022/04/22 06:12:03;;;;;;;17.83;12.77;;;;;;;7.65;100.00;95763.69;10466654;28;20214;-53
2022/04/22 06:17:03;;;;;;;17.20;12.13;;;;;;;7.64;100.00;95756.03;10495105;28;20222;-55
2022/04/22 06:22:04;;;;;;;14.63;11.93;;;;;;;8.40;100.00;95761.88;10494932;28;20215;-58
2022/04/22 06:27:04;;;;;;;18.17;11.97;;;;;;;8.33;100.00;95761.72;10494745;28;20277;-56
2022/04/22 06:32:05;;;;;;;22.43;14.87;;;;;;;9.82;100.00;95741.75;10494221;28;20223;-58
2022/04/22 06:37:06;;;;;;;25.93;16.37;;;;;;;9.45;100.00;95755.59;10493509;28;20669;-57
2022/04/22 06:48:12;;;;;;;20.55;15.45;;;;;;;9.84;100.00;95759.91;10490660;28;20188;-60
2022/04/22 06:53:38;;;;;;;19.90;14.90;;;;;;;10.45;100.00;95719.81;10477473;28;20215;-58
2022/04/22 06:58:40;;;;;;;18.58;13.48;;;;;;;10.32;100.00;95723.81;10477294;28;20195;-59
2022/04/22 07:03:40;;;;;;;15.38;12.13;;;;;;;10.80;99.84;95725.31;10487481;28;20215;-60
2022/04/22 07:08:42;;;;;;;14.13;11.30;;;;;;;10.99;97.80;95718.69;10492010;28;20210;-62
2022/04/22 07:13:43;;;;;;;14.52;11.00;;;;;;;11.52;89.48;95684.34;10491970;28;20226;-60
2022/04/22 07:18:43;;;;;;;11.93;9.27;;;;;;;13.19;77.92;95578.34;10490704;28;20232;-56
2022/04/22 07:23:44;;;;;;;9.52;7.82;;;;;;;13.41;70.83;95507.16;10470523;28;20593;-58
2022/04/22 07:28:49;;;;;;;7.25;5.80;;;;;;;13.67;68.79;95503.69;10467796;28;20279;-60
2022/04/22 07:33:50;;;;;;;6.97;5.95;;;;;;;13.47;66.71;95484.50;10470223;28;20228;-60
2022/04/22 07:38:50;;;;;;;7.03;6.13;;;;;;;13.17;68.64;95519.91;10449719;28;20198;-59
2022/04/22 07:49:11;;;;;;;8.43;6.15;;;;;;;14.35;60.42;95394.44;10449900;28;20192;-59
2022/04/22 07:54:14;;;;;;;7.53;6.53;;;;;;;15.03;59.94;95395.56;10471181;28;20211;-61
2022/04/22 07:59:15;;;;;;;10.15;7.30;;;;;;;15.87;59.59;95432.88;10485367;28;20727;-61
2022/04/22 08:04:16;;;;;;;13.75;8.82;;;;;;;14.49;64.71;95531.38;10494664;28;20180;-58
2022/04/22 08:09:16;;;;;;;12.95;10.60;;;;;;;14.59;70.82;95624.78;10457153;28;20202;-60
2022/04/22 08:14:17;;;;;;;9.75;8.00;;;;;;;14.96;65.88;95535.41;10457224;28;20227;-59
2022/04/22 08:19:18;;;;;;;12.40;9.02;;;;;;;14.41;68.80;95582.47;10456807;28;20597;-59
2022/04/22 08:24:19;;;;;;;13.13;9.98;;;;;;;14.02;69.04;95577.13;10468975;28;20195;-60
2022/04/22 08:29:19;;;;;;;12.15;9.23;;;;;;;13.08;70.28;95600.00;10497245;28;20542;-60
2022/04/22 08:34:20;;;;;;;17.42;12.15;;;;;;;12.91;73.04;95638.16;10496494;28;20214;-59
2022/04/22 08:39:20;;;;;;;20.40;13.60;;;;;;;13.83;74.31;95657.75;10497512;28;20712;-60
2022/04/22 08:44:21;;;;;;;18.33;14.75;;;;;;;13.28;76.06;95676.28;10496870;28;20186;-57
2022/04/22 08:54:43;;;;;;;22.52;15.80;;;;;;;14.06;73.52;95628.38;10496762;28;20721;-62
2022/04/22 08:59:43;;;;;;;20.38;15.43;;;;;;;14.06;70.78;95585.44;10495596;28;20211;-61
2022/04/22 09:04:44;;;;;;;20.58;16.05;;;;;;;14.73;68.42;95538.59;10496326;28;20194;-58
2022/04/22 09:09:49;;;;;;;18.83;14.13;;;;;;;15.04;69.57;95563.34;10492406;28;20210;-60
2022/04/22 09:14:52;;;;;;;23.10;17.00;;;;;;;15.27;71.85;95602.34;10461147;28;20212;-61
2022/04/22 09:19:55;;;;;;;21.98;17.02;;;;;;;16.24;65.14;95490.16;10454010;28;20299;-62
2022/04/22 09:24:58;;;;;;;22.98;17.20;;;;;;;15.64;67.48;95535.69;10454668;28;20187;-62
2022/04/22 09:30:00;;;;;;;23.17;18.00;;;;;;;15.45;69.01;95548.84;10478711;28;20250;-60
2022/04/22 09:35:20;;;;;;;25.02;19.13;;;;;;;14.94;71.35;95592.81;10495299;28;20305;-58
2022/04/22 09:45:44;;;;;;;23.80;17.90;;;;;;;16.49;65.19;95482.13;10500364;28;20279;-59
2022/04/22 09:50:47;;;;;;;24.17;17.52;;;;;;;17.20;63.80;95478.88;10493935;28;20597;-60
2022/04/22 09:55:49;;;;;;;21.65;18.40;;;;;;;16.68;66.36;95516.44;10494390;28;20697;-57
2022/04/22 10:00:57;;;;;;;21.25;16.75;;;;;;;16.70;63.61;95454.34;10496540;28;20219;-60
2022/04/22 10:05:58;;;;;;;22.98;15.88;;;;;;;16.60;62.20;95427.69;10494510;28;20628;-59
2022/04/22 10:11:00;;;;;;;20.58;15.32;;;;;;;17.43;62.15;95449.75;10493504;28;20578;-60
2022/04/22 10:16:02;;;;;;;21.20;15.52;;;;;;;17.11;61.98;95425.47;10474576;28;20214;-60
2022/04/22 10:21:03;;;;;;;18.45;14.52;;;;;;;17.75;58.76;95367.28;10492169;28;20267;-60
2022/04/22 10:26:05;;;;;;;18.83;14.70;;;;;;;18.22;58.27;95368.16;10492686;28;20726;-61
2022/04/22 10:31:05;;;;;;;16.95;13.85;;;;;;;18.11;56.62;95340.66;10517614;22;20231;-61
2022/04/22 10:36:06;;;;;;;15.70;12.00;;;;;;;19.22;55.46;95341.91;10516326;28;20206;-60
2022/04/22 10:41:17;;;;;;;14.20;11.77;;;;;;;19.01;53.53;95291.19;10534925;28;20279;-61
2022/04/22 10:52:09;;;;;;;17.65;12.75;;;;;;;19.83;48.86;95193.06;10497525;28;20689;-59
2022/04/22 10:57:19;;;;;;;14.60;11.20;;;;;;;20.14;48.24;95196.78;10492581;28;20187;-59
2022/04/22 11:02:32;;;;;;;14.32;11.35;;;;;;;20.14;47.86;95191.47;10499924;28;20223;-61
2022/04/22 11:07:51;;;;;;;14.60;11.75;;;;;;;18.41;53.43;95303.28;10512998;28;20187;-60
2022/04/22 11:12:53;;;;;;;14.52;12.30;;;;;;;17.40;53.43;95282.66;10514551;28;20275;-60
2022/04/22 11:17:54;;;;;;;16.08;12.73;;;;;;;16.12;58.70;95388.91;10532877;28;20247;-59
2022/04/22 11:22:58;;;;;;;16.90;12.95;;;;;;;14.73;60.28;95390.97;10509607;28;20739;-60
2022/04/22 11:27:59;;;;;;;14.35;8.73;;;;;;;14.44;59.89;95368.63;10496779;28;20270;-60
2022/04/22 11:33:19;;;;;;;13.35;11.13;;;;;;;14.35;60.96;95401.53;10500187;28;20242;-59
2022/04/22 11:38:20;;;;;;;13.55;9.48;;;;;;;14.06;62.80;95438.75;10525536;28;20277;-61
2022/04/22 11:43:21;;;;;;;12.95;9.77;;;;;;;14.24;61.36;95408.28;10541301;28;20221;-61
2022/04/22 11:48:23;;;;;;;12.60;9.25;;;;;;;14.22;63.60;95457.72;10541572;28;20189;-61
2022/04/22 11:53:26;;;;;;;10.75;9.43;;;;;;;14.03;63.40;95449.72;10531712;28;20216;-61
2022/04/22 11:58:27;;;;;;;14.88;9.82;;;;;;;13.93;63.30;95445.91;10540607;28;20710;-60
2022/04/22 12:09:00;;;;;;;10.27;7.90;;;;;;;13.76;69.12;95569.28;10518872;28;20179;-59
2022/04/22 12:14:00;;;;;;;16.90;12.95;;;;;;;13.40;70.83;95589.75;10526241;28;20692;-60
2022/04/22 12:19:01;;;;;;;18.45;13.75;;;;;;;13.14;77.30;95672.00;10534097;28;20223;-60
2022/04/22 12:24:02;;;;;;;20.55;15.50;;;;;;;12.51;80.99;95659.84;10521798;28;20704;-59
2022/04/22 12:29:12;;;;;;;23.48;17.15;;;;;;;12.17;85.12;95642.28;10539967;28;20232;-59
2022/04/22 12:34:30;;;;;;;20.85;15.70;;;;;;;12.07;87.88;95619.81;10539229;28;20717;-59
2022/04/22 12:39:36;;;;;;;22.55;15.32;;;;;;;12.22;85.97;95592.59;10537940;28;20602;-59
2022/04/22 12:44:36;;;;;;;20.83;13.38;;;;;;;12.23;85.38;95594.25;10520033;28;20715;-60
2022/04/22 12:52:08;;;;;;;14.48;10.23;;;;;;;12.19;84.37;95588.56;10539083;28;20210;-59
2022/04/22 12:55:05;;;;;;;12.23;9.98;;;;;;;12.37;79.94;95532.06;10499371;28;20207;-59
2022/04/22 13:00:19;;;;;;;16.67;10.10;;;;;;;12.28;80.50;95566.41;10504238;28;20199;-60
2022/04/22 13:05:21;;;;;;;14.80;9.82;;;;;;;12.19;74.11;95475.69;10528049;28;20230;-59
2022/04/22 13:10:22;;;;;;;10.45;7.93;;;;;;;12.10;76.75;95530.16;10545553;28;20255;-58
2022/04/22 13:15:22;;;;;;;10.15;7.85;;;;;;;12.03;78.92;95573.13;10542289;28;20220;-57
2022/04/22 13:20:22;;;;;;;9.57;6.80;;;;;;;11.83;83.43;95609.72;10537460;28;20222;-59
2022/04/22 13:25:23;;;;;;;11.23;8.88;;;;;;;11.75;78.23;95539.84;10525515;28;20277;-56
2022/04/22 13:30:25;;;;;;;13.70;7.88;;;;;;;11.63;82.95;95602.50;10537738;28;20225;-59
2022/04/22 13:35:25;;;;;;;10.75;7.30;;;;;;;11.39;85.71;95609.81;10536344;28;20223;-60
2022/04/22 13:40:26;;;;;;;11.02;8.05;;;;;;;11.33;88.61;95618.44;10522703;28;20187;-60
2022/04/22 13:56:05;;;;;;;18.00;11.38;;;;;;;11.17;97.31;95626.53;10520171;28;20195;-58
2022/04/22 14:01:05;;;;;;;12.65;9.77;;;;;;;10.78;97.93;95618.09;10513261;28;20210;-60
2022/04/22 14:06:06;;;;;;;13.73;10.25;;;;;;;10.53;89.85;95601.88;10511566;28;20228;-59
2022/04/22 14:11:08;;;;;;;11.67;9.63;;;;;;;10.78;85.43;95585.81;10513159;28;20207;-58
2022/04/22 14:16:08;;;;;;;12.97;10.03;;;;;;;10.85;86.62;95605.84;10514308;28;20171;-60
2022/04/22 14:21:09;;;;;;;16.47;13.07;;;;;;;10.56;89.24;95624.25;10518817;28;20203;-61
2022/04/22 14:26:12;;;;;;;17.77;12.20;;;;;;;10.40;96.94;95633.94;10492799;28;20579;-57
2022/04/22 14:31:12;;;;;;;19.53;13.80;;;;;;;9.86;99.54;95637.56;10494235;28;20685;-57
2022/04/22 14:36:13;;;;;;;21.40;14.63;;;;;;;9.90;100.00;95654.56;10491606;28;20183;-59
2022/04/22 14:41:15;;;;;;;20.20;14.53;;;;;;;9.76;100.00;95652.75;10495027;28;20218;-60
2022/04/22 14:46:16;;;;;;;20.60;14.80;;;;;;;9.69;100.00;95657.84;10491474;28;20227;-59
2022/04/22 14:51:17;;;;;;;19.80;14.93;;;;;;;9.59;100.00;95652.88;10521717;28;20229;-59
2022/04/22 14:56:17;;;;;;;22.23;14.80;;;;;;;9.50;100.00;95646.09;10522703;28;20175;-58
2022/04/22 15:01:18;;;;;;;21.43;13.77;;;;;;;9.60;100.00;95653.69;10498684;28;20657;-58
2022/04/22 15:06:18;;;;;;;26.37;19.17;;;;;;;9.27;100.00;95659.16;10516360;28;20232;-57
2022/04/22 15:11:18;;;;;;;38.73;31.03;;;;;;;8.92;100.00;95662.16;10523736;28;20242;-55
2022/04/22 15:16:19;;;;;;;24.80;18.73;;;;;;;8.88;100.00;95658.28;10505331;28;20187;-58
2022/04/22 15:26:40;;;;;;;19.87;14.07;;;;;;;8.98;100.00;95649.41;10506096;28;20219;-58
2022/04/22 15:31:41;;;;;;;18.17;13.83;;;;;;;8.92;100.00;95656.94;10497926;28;20235;-58
2022/04/22 15:36:42;;;;;;;17.03;14.27;;;;;;;8.95;100.00;95660.19;10495471;28;20189;-53
2022/04/22 15:41:43;;;;;;;21.13;14.17;;;;;;;8.84;100.00;95670.03;10512832;28;20207;-55
2022/04/22 15:46:43;;;;;;;16.13;12.53;;;;;;;8.85;100.00;95661.22;10505662;28;20772;-54
2022/04/22 15:51:44;;;;;;;19.90;13.27;;;;;;;8.77;100.00;95673.50;10520018;28;20226;-57
2022/04/22 15:56:44;;;;;;;15.63;12.57;;;;;;;8.72;100.00;95677.44;10505790;28;20260;-58
2022/04/22 16:01:45;;;;;;;15.90;13.07;;;;;;;8.79;100.00;95668.91;10500322;28;20202;-58
2022/04/22 16:06:45;;;;;;;18.10;13.00;;;;;;;8.80;100.00;95676.59;10517577;28;20989;-55
2022/04/22 16:17:05;;;;;;;18.97;13.47;;;;;;;8.70;100.00;95674.19;10487291;28;20222;-53
2022/04/22 16:22:05;;;;;;;19.83;14.97;;;;;;;8.53;100.00;95675.22;10487255;28;20298;-53
2022/04/22 16:27:08;;;;;;;22.03;15.70;;;;;;;8.62;100.00;95673.41;10488200;28;20227;-53
2022/04/22 16:32:09;;;;;;;17.60;14.00;;;;;;;8.71;100.00;95683.66;10486899;28;20281;-55
2022/04/22 16:37:09;;;;;;;20.37;15.07;;;;;;;8.65;100.00;95678.28;10486763;28;20286;-55
2022/04/22 16:42:10;;;;;;;21.20;14.87;;;;;;;8.65;100.00;95673.06;10487174;28;20211;-57
2022/04/22 16:47:11;;;;;;;21.53;15.67;;;;;;;8.39;100.00;95676.72;10487185;28;20234;-55
2022/04/22 16:52:12;;;;;;;21.23;15.53;;;;;;;8.44;100.00;95679.69;10486153;28;20222;-59
2022/04/22 16:57:13;;;;;;;23.87;16.87;;;;;;;8.48;100.00;95688.78;10486270;28;20195;-56
2022/04/22 17:02:15;;;;;;;20.13;14.47;;;;;;;8.52;100.00;95686.66;10486319;28;20215;-54
2022/04/22 17:07:16;;;;;;;17.97;14.80;;;;;;;8.45;100.00;95691.72;10496539;22;20239;-59
2022/04/22 17:12:16;;;;;;;20.20;15.53;;;;;;;8.37;100.00;95694.34;10452745;28;20194;-57
2022/04/22 17:22:41;;;;;;;24.80;19.57;;;;;;;8.21;100.00;95692.59;10452793;28;20711;-57
2022/04/22 17:27:44;;;;;;;21.77;15.23;;;;;;;8.36;100.00;95703.97;10452267;28;20215;-59
2022/04/22 17:32:45;;;;;;;27.03;19.20;;;;;;;8.43;100.00;95700.69;10452276;28;20562;-59
2022/04/22 17:37:46;;;;;;;31.40;23.67;;;;;;;8.50;100.00;95709.50;10451600;28;20212;-58
2022/04/22 17:42:46;;;;;;;32.80;24.87;;;;;;;8.59;100.00;95713.75;10451948;28;20310;-57
2022/04/22 17:47:47;;;;;;;36.93;24.07;;;;;;;8.60;100.00;95719.75;10448783;28;20218;-58
2022/04/22 17:52:47;;;;;;;33.73;24.20;;;;;;;8.82;100.00;95720.81;10448501;28;20190;-54
2022/04/22 17:57:49;;;;;;;35.73;24.57;;;;;;;8.71;100.00;95728.06;10448248;28;20208;-60
2022/04/22 18:02:49;;;;;;;34.13;23.57;;;;;;;8.73;100.00;95736.53;10449023;28;20219;-60
2022/04/22 18:07:50;;;;;;;32.20;23.93;;;;;;;8.80;100.00;95736.66;10450212;28;20861;-57
2022/04/22 18:12:50;;;;;;;30.60;22.80;;;;;;;8.97;100.00;95739.19;10450956;28;20956;-61
2022/04/22 18:17:51;;;;;;;29.07;21.73;;;;;;;9.03;100.00;95744.53;10449948;28;20370;-60
2022/04/22 18:22:52;;;;;;;80.13;54.80;;;;;;;8.99;100.00;95742.44;10449763;28;20224;-61
2022/04/22 18:27:52;;;;;;;34.13;23.40;;;;;;;9.03;100.00;95741.13;10449033;28;20216;-57
2022/04/22 18:32:53;;;;;;;35.63;23.50;;;;;;;8.95;100.00;95746.41;10450181;28;20884;-57
2022/04/22 18:37:53;;;;;;;32.50;21.90;;;;;;;8.89;100.00;95746.06;10447729;28;20211;-57
2022/04/22 18:42:54;;;;;;;29.90;22.30;;;;;;;8.83;100.00;95748.56;10448684;28;20299;-58
2022/04/22 18:47:56;;;;;;;29.37;21.73;;;;;;;8.83;100.00;95746.75;10447831;28;20207;-58
2022/04/22 18:52:56;;;;;;;33.50;22.00;;;;;;;8.83;100.00;95751.97;10448220;28;20249;-58
2022/04/22 18:57:57;;;;;;;30.57;21.93;;;;;;;8.78;100.00;95753.47;10447564;28;20413;-56
2022/04/22 19:03:12;;;;;;;28.17;20.03;;;;;;;8.95;100.00;95760.25;10447203;28;20215;-54
2022/04/22 19:08:20;;;;;;;29.40;20.67;;;;;;;8.89;100.00;95750.50;10448132;28;20774;-54
2022/04/22 19:13:21;;;;;;;33.33;21.27;;;;;;;8.98;100.00;95752.09;10448717;28;20209;-58
2022/04/22 19:18:21;;;;;;;32.80;21.23;;;;;;;8.82;100.00;95759.97;10448796;28;20548;-53
2022/04/22 19:23:22;;;;;;;35.03;22.33;;;;;;;8.66;100.00;95766.88;10448945;28;20251;-55
2022/04/22 19:28:22;;;;;;;33.73;23.37;;;;;;;8.64;100.00;95760.22;10448145;28;20219;-55
2022/04/22 19:33:23;;;;;;;33.80;22.03;;;;;;;8.63;100.00;95756.78;10447900;28;20278;-60
2022/04/22 19:43:42;;;;;;;35.57;22.10;;;;;;;8.40;100.00;95765.28;10448131;28;20204;-60
2022/04/22 19:48:42;;;;;;;31.60;22.10;;;;;;;8.36;100.00;95765.78;10451755;28;20298;-59
2022/04/22 19:53:42;;;;;;;37.63;25.13;;;;;;;8.42;100.00;95767.72;10456350;28;20195;-57
2022/04/22 19:58:46;;;;;;;35.10;22.53;;;;;;;8.41;100.00;95766.13;10437561;28;20220;-55
2022/04/22 20:03:46;;;;;;;40.13;25.93;;;;;;;8.31;100.00;95775.91;10453233;28;20265;-58
2022/04/22 20:08:48;;;;;;;39.53;26.53;;;;;;;8.18;100.00;95779.03;10452547;28;20220;-59
2022/04/22 20:13:50;;;;;;;39.80;24.80;;;;;;;8.18;100.00;95779.03;10453344;28;20658;-59
2022/04/22 20:18:50;;;;;;;35.87;23.00;;;;;;;8.19;100.00;95780.66;10452948;28;20247;-58
2022/04/22 20:23:51;;;;;;;36.97;23.07;;;;;;;8.33;100.00;95782.59;10455064;28;20307;-60
2022/04/22 20:28:51;;;;;;;40.50;26.63;;;;;;;8.07;100.00;95777.56;10453973;28;20258;-59
2022/04/22 20:33:51;;;;;;;40.97;26.87;;;;;;;7.95;100.00;95778.88;10453186;28;21122;-59
2022/04/22 20:44:11;;;;;;;36.23;26.03;;;;;;;8.09;100.00;95786.03;10458376;28;20220;-59
2022/04/22 20:49:13;;;;;;;37.37;25.83;;;;;;;8.06;100.00;95782.97;10457173;28;20211;-60
2022/04/22 20:54:14;;;;;;;39.80;27.60;;;;;;;8.03;100.00;95791.91;10458892;28;20196;-59
2022/04/22 20:59:14;;;;;;;40.17;26.50;;;;;;;7.91;100.00;95798.44;10455838;28;20219;-58
2022/04/22 21:04:15;;;;;;;38.60;26.57;;;;;;;7.90;100.00;95802.00;10458341;28;20219;-59
2022/04/22 21:09:15;;;;;;;36.53;26.90;;;;;;;7.79;100.00;95798.72;10458042;28;20384;-59
2022/04/22 21:14:18;;;;;;;39.07;29.67;;;;;;;7.74;100.00;95795.81;10456031;28;20624;-57
2022/04/22 21:19:18;;;;;;;39.90;28.47;;;;;;;7.69;100.00;95803.31;10455636;28;20219;-59
2022/04/22 21:24:19;;;;;;;37.00;28.03;;;;;;;7.71;100.00;95809.16;10455584;28;20215;-56
2022/04/22 21:29:19;;;;;;;38.63;26.10;;;;;;;7.60;100.00;95812.09;10455295;28;20212;-54
2022/04/22 21:34:19;;;;;;;40.13;29.10;;;;;;;7.49;100.00;95819.22;10453401;28;20271;-58
2022/04/22 21:39:20;;;;;;;38.60;27.87;;;;;;;7.47;100.00;95820.34;10449735;28;20211;-60
2022/04/22 21:44:20;;;;;;;41.27;29.13;;;;;;;7.34;100.00;95823.41;10455325;28;20226;-57
2022/04/22 21:49:20;;;;;;;39.50;28.73;;;;;;;7.32;100.00;95828.00;10453856;28;20296;-58
2022/04/22 21:54:21;;;;;;;37.33;27.83;;;;;;;7.41;100.00;95829.63;10454308;28;20184;-59
2022/04/22 21:59:21;;;;;;;38.87;28.40;;;;;;;7.32;100.00;95823.59;10453904;28;20228;-56
2022/04/22 22:04:22;;;;;;;36.50;27.43;;;;;;;7.53;100.00;95826.72;10453665;28;20216;-59
2022/04/22 22:09:22;;;;;;;38.87;27.60;;;;;;;7.41;100.00;95834.03;10452154;28;20243;-56
2022/04/22 22:14:24;;;;;;;35.97;25.83;;;;;;;7.39;100.00;95836.78;10453316;28;20192;-57
2022/04/22 22:19:24;;;;;;;35.87;24.10;;;;;;;7.37;100.00;95841.34;10452775;28;20208;-58
2022/04/22 22:24:24;;;;;;;38.53;27.53;;;;;;;7.28;100.00;95839.69;10452941;28;20698;-58
2022/04/22 22:29:25;;;;;;;38.10;27.83;;;;;;;7.26;100.00;95829.41;10452738;28;20692;-59
2022/04/22 22:34:25;;;;;;;36.00;26.87;;;;;;;7.25;100.00;95840.00;10452986;28;20560;-58
2022/04/22 22:39:26;;;;;;;36.37;27.17;;;;;;;7.21;100.00;95838.69;10452753;28;20307;-59
2022/04/22 22:44:26;;;;;;;38.73;28.33;;;;;;;7.20;100.00;95843.06;10452490;28;20215;-58
2022/04/22 22:49:26;;;;;;;32.27;25.17;;;;;;;7.17;100.00;95838.19;10452367;28;20301;-59
2022/04/22 22:54:27;;;;;;;34.77;25.63;;;;;;;7.14;100.00;95836.69;10452346;28;20191;-57
2022/04/22 22:59:27;;;;;;;32.67;25.23;;;;;;;7.16;100.00;95836.53;10451829;28;20265;-58
2022/04/22 23:04:27;;;;;;;33.27;23.73;;;;;;;7.18;100.00;95837.19;10451852;28;20323;-57
2022/04/22 23:09:28;;;;;;;34.53;25.23;;;;;;;7.11;100.00;95831.00;10472807;22;20251;-53
2022/04/22 23:14:28;;;;;;;30.43;22.87;;;;;;;7.00;100.00;95832.09;10452159;28;20188;-53
2022/04/22 23:19:28;;;;;;;31.57;24.20;;;;;;;6.93;100.00;95825.88;10452057;28;20246;-53
2022/04/22 23:24:29;;;;;;;32.50;24.13;;;;;;;6.70;100.00;95831.59;10451969;28;20223;-53
2022/04/22 23:29:30;;;;;;;29.90;22.77;;;;;;;6.59;100.00;95821.47;10451774;28;20314;-53
2022/04/22 23:34:30;;;;;;;32.00;20.97;;;;;;;6.81;100.00;95824.50;10452045;28;20184;-52
2022/04/22 23:39:31;;;;;;;30.00;22.43;;;;;;;6.84;100.00;95826.78;10451634;28;20215;-53
2022/04/22 23:44:31;;;;;;;28.43;20.77;;;;;;;6.98;100.00;95815.78;10451545;28;20250;-54
2022/04/22 23:49:32;;;;;;;27.23;21.10;;;;;;;6.87;100.00;95816.06;10451650;28;20315;-54
2022/04/22 23:54:32;;;;;;;27.93;21.90;;;;;;;6.72;100.00;95811.47;10451341;28;20192;-54
2022/04/22 23:59:32;;;;;;;29.50;19.93;;;;;;;6.83;100.00;95805.16;10450750;28;20216;-53
